Time;durP1;ratioP1;P1;durP2;ratioP2;P2;SDS_P1;SDS_P2;PMS_P1;PMS_P2;Temp;Humidity;BMP_temperature;BMP_pressure;BME280_temperature;BME280_humidity;BME280_pressure;Samples;Min_cycle;Max_cycle;Signal;HPM_P1;HPM_P2
2022/08/05 00:01:46;;;;;;;;;11.33;11.33;;;;;21.89;80.73;101144.50;5080586;28;45278;-75
2022/08/05 00:04:12;;;;;;;;;15.33;13.00;;;;;21.98;80.55;101138.69;5080955;28;46690;-75
2022/08/05 00:06:37;;;;;;;;;13.00;12.33;;;;;21.89;80.03;101122.03;5080831;28;45289;-75
2022/08/05 00:09:04;;;;;;;;;12.33;12.33;;;;;21.91;78.80;101122.63;5095508;27;45327;-75
2022/08/05 00:11:29;;;;;;;;;13.67;12.67;;;;;21.70;78.91;101085.13;5079347;28;46051;-75
2022/08/05 00:13:54;;;;;;;;;12.00;12.00;;;;;21.59;78.77;101072.47;5080485;28;46241;-75
2022/08/05 00:16:20;;;;;;;;;10.33;9.00;;;;;;;;5086739;27;45317;-75
2022/08/05 00:18:48;;;;;;;;;13.33;11.67;;;;;21.37;80.56;101048.00;5084401;27;45233;-75
2022/08/05 00:21:15;;;;;;;;;9.67;8.67;;;;;21.24;80.95;101030.97;5079466;28;45542;-75
2022/08/05 00:23:43;;;;;;;;;8.00;8.00;;;;;21.28;81.17;101013.22;5080337;28;45354;-75
2022/08/05 00:26:08;;;;;;;;;10.67;9.00;;;;;21.24;81.07;101022.03;5066141;28;45259;-76
2022/08/05 00:28:34;;;;;;;;;4.00;4.00;;;;;21.22;80.78;101022.28;5079352;27;45287;-75
2022/08/05 00:30:59;;;;;;;;;6.67;6.00;;;;;21.18;80.53;101027.34;5079066;28;45486;-75
2022/08/05 00:33:25;;;;;;;;;7.33;6.67;;;;;21.24;80.43;101113.91;5078921;28;48173;-75
2022/08/05 00:35:50;;;;;;;;;7.67;7.67;;;;;21.28;80.01;101177.28;5075922;28;45586;-75
2022/08/05 00:38:15;;;;;;;;;7.00;6.33;;;;;21.26;80.85;101195.59;5078548;28;45598;-75
2022/08/05 00:40:49;;;;;;;;;7.67;7.67;;;;;21.24;81.22;101228.25;5080620;28;45620;-75
2022/08/05 00:43:15;;;;;;;;;6.00;6.00;;;;;21.20;81.15;101264.94;5080048;28;45593;-75
2022/08/05 00:45:42;;;;;;;;;3.67;3.67;;;;;21.18;81.16;101272.44;5080492;28;45390;-74
2022/08/05 00:48:08;;;;;;;;;7.00;6.33;;;;;21.09;80.70;101184.66;5079788;28;45413;-74
2022/08/05 00:50:34;;;;;;;;;7.33;7.33;;;;;21.10;81.33;101137.69;5079517;28;46075;-74
2022/08/05 00:52:59;;;;;;;;;7.00;7.00;;;;;21.12;81.11;101155.31;5079780;28;45408;-75
2022/08/05 00:55:24;;;;;;;;;8.00;6.67;;;;;21.14;81.51;101187.50;5079970;28;45377;-74
2022/08/05 00:57:50;;;;;;;;;8.67;7.33;;;;;21.04;81.82;101204.31;5080306;28;45512;-74
2022/08/05 01:00:15;;;;;;;;;8.33;8.33;;;;;20.94;82.56;101238.09;5092474;27;46436;-74
2022/08/05 01:02:40;;;;;;;;;9.67;9.00;;;;;20.89;82.49;101237.13;5079721;28;45300;-74
2022/08/05 01:05:06;;;;;;;;;8.33;8.33;;;;;20.83;81.44;101216.44;5079658;28;48421;-74
2022/08/05 01:07:31;;;;;;;;;8.33;8.33;;;;;20.90;82.08;101185.59;5079865;28;45336;-74
2022/08/05 01:09:57;;;;;;;;;7.67;7.67;;;;;20.96;81.80;101148.72;5079881;28;45387;-74
2022/08/05 01:12:24;;;;;;;;;9.00;9.00;;;;;20.97;81.53;101100.91;5093662;27;47195;-74
2022/08/05 01:15:05;;;;;;;;;9.00;9.00;;;;;21.01;82.13;101124.50;5079808;28;45410;-74
2022/08/05 01:17:44;;;;;;;;;9.33;8.67;;;;;20.98;81.77;101197.13;5089401;27;45622;-74
2022/08/05 01:20:24;;;;;;;;;8.67;8.67;;;;;20.93;81.62;101239.19;5079726;28;45464;-75
2022/08/05 01:23:10;;;;;;;;;11.33;11.33;;;;;20.91;82.25;101181.00;5079605;28;45617;-73
2022/08/05 01:25:57;;;;;;;;;8.67;7.67;;;;;20.87;81.87;101087.97;5079473;28;45390;-74
2022/08/05 01:28:27;;;;;;;;;10.00;10.00;;;;;20.89;82.66;101110.97;5065889;28;45416;-74
2022/08/05 01:31:28;;;;;;;;;14.00;13.00;;;;;20.91;81.73;101132.38;5087527;27;46582;-74
2022/08/05 01:34:01;;;;;;;;;10.00;9.67;;;;;20.87;81.09;101166.31;5070610;28;47685;-74
2022/08/05 01:36:33;;;;;;;;;9.00;9.00;;;;;20.84;81.06;101197.31;5079462;28;45360;-74
2022/08/05 01:38:59;;;;;;;;;9.33;8.67;;;;;20.81;80.86;101193.16;5079559;28;45364;-74
2022/08/05 01:41:28;;;;;;;;;13.00;11.33;;;;;20.74;80.50;101165.44;5079312;28;45406;-74
2022/08/05 01:43:53;;;;;;;;;12.00;11.67;;;;;20.65;80.27;101212.78;5079255;28;45444;-74
2022/08/05 01:46:21;;;;;;;;;10.67;10.67;;;;;20.66;80.27;101173.91;5079190;28;45343;-74
2022/08/05 01:48:48;;;;;;;;;12.00;12.00;;;;;20.63;80.10;101164.41;5079591;28;45326;-75
2022/08/05 01:51:16;;;;;;;;;13.00;13.00;;;;;20.66;80.48;101103.69;5079312;28;45350;-74
2022/08/05 01:53:45;;;;;;;;;13.67;13.00;;;;;20.59;81.21;101121.88;5093415;27;46487;-75
2022/08/05 01:56:14;;;;;;;;;12.67;10.33;;;;;20.56;81.13;101126.69;5079312;28;45390;-74
2022/08/05 01:58:41;;;;;;;;;11.33;11.00;;;;;20.57;80.68;101203.13;5079217;28;45416;-74
2022/08/05 02:01:08;;;;;;;;;11.67;11.67;;;;;20.59;79.96;101154.28;5078280;28;46591;-74
2022/08/05 02:03:42;;;;;;;;;11.00;10.33;;;;;20.55;80.33;101135.84;5082580;28;45529;-74
2022/08/05 02:06:09;;;;;;;;;7.67;7.33;;;;;20.61;80.42;101153.00;5082817;28;45315;-74
2022/08/05 02:08:35;;;;;;;;;9.00;9.00;;;;;20.66;80.61;101144.19;5082519;28;45505;-74
2022/08/05 02:11:10;;;;;;;;;13.00;11.67;;;;;20.60;80.37;101155.94;5082556;28;45211;-74
2022/08/05 02:13:48;;;;;;;;;12.00;10.00;;;;;20.62;80.79;101141.13;5082262;28;45415;-74
2022/08/05 02:16:36;;;;;;;;;7.67;7.67;;;;;20.65;80.77;101147.97;5087648;27;45236;-74
2022/08/05 02:19:16;;;;;;;;;7.00;7.00;;;;;20.56;80.95;101124.00;5077035;28;45385;-74
2022/08/05 02:21:59;;;;;;;;;11.67;11.67;;;;;20.56;81.17;101152.84;5089208;27;46279;-74
2022/08/05 02:24:31;;;;;;;;;11.67;11.67;;;;;20.55;81.27;101195.25;5081979;28;45374;-74
2022/08/05 02:27:00;;;;;;;;;11.33;11.33;;;;;20.50;81.58;101156.50;5080756;28;45358;-75
2022/08/05 02:29:28;;;;;;;;;10.00;10.00;;;;;20.46;81.34;101134.53;5080927;28;45348;-74
2022/08/05 02:31:56;;;;;;;;;10.00;10.00;;;;;20.50;81.00;101119.50;5082231;28;45484;-74
2022/08/05 02:34:23;;;;;;;;;10.00;10.00;;;;;20.48;81.30;101137.00;5082224;28;45422;-73
2022/08/05 02:36:54;;;;;;;;;12.33;10.67;;;;;20.50;80.73;101156.50;5097689;27;45348;-74
2022/08/05 02:39:22;;;;;;;;;14.00;11.67;;;;;20.51;81.09;101185.13;5082312;28;45285;-74
2022/08/05 02:41:49;;;;;;;;;10.00;10.00;;;;;20.48;81.56;101194.53;5080545;28;46669;-74
2022/08/05 02:44:16;;;;;;;;;11.00;11.00;;;;;20.38;81.21;101195.06;5080526;28;47246;-74
2022/08/05 02:46:44;;;;;;;;;11.00;11.00;;;;;20.48;81.59;101204.50;5080312;28;45471;-74
2022/08/05 02:49:13;;;;;;;;;12.00;12.00;;;;;20.45;82.02;101168.00;5080841;28;45691;-74
2022/08/05 02:51:39;;;;;;;;;11.33;11.33;;;;;20.50;82.78;101143.00;5081882;28;45279;-74
2022/08/05 02:54:05;;;;;;;;;11.33;10.67;;;;;20.50;82.62;101135.72;5081522;28;45357;-74
2022/08/05 02:56:32;;;;;;;;;10.00;10.00;;;;;20.53;82.57;101137.16;5081891;28;45459;-74
2022/08/05 02:58:59;;;;;;;;;8.33;8.33;;;;;20.52;81.82;101152.50;5080631;28;45358;-73
2022/08/05 03:01:26;;;;;;;;;9.00;9.00;;;;;20.38;81.64;101113.28;5081678;28;45350;-74
2022/08/05 03:03:58;;;;;;;;;9.00;8.33;;;;;20.41;82.30;101066.94;5081465;28;46438;-74
2022/08/05 03:06:26;;;;;;;;;9.33;9.33;;;;;20.42;82.09;101093.66;5081922;28;45407;-74
2022/08/05 03:08:52;;;;;;;;;13.33;12.00;;;;;20.39;82.11;101131.13;5094880;27;45312;-74
2022/08/05 03:11:25;;;;;;;;;8.67;7.00;;;;;20.40;82.44;101125.50;5081573;28;45522;-74
2022/08/05 03:13:52;;;;;;;;;9.67;9.67;;;;;20.44;82.15;101121.25;5093423;27;48060;-74
2022/08/05 03:16:18;;;;;;;;;10.33;9.67;;;;;20.37;81.60;101154.81;5088911;27;45334;-74
2022/08/05 03:18:43;;;;;;;;;11.67;9.33;;;;;20.30;82.11;101171.09;5082887;27;45379;-74
2022/08/05 03:21:09;;;;;;;;;9.67;9.67;;;;;20.26;82.01;101178.81;5083508;27;47252;-74
2022/08/05 03:23:35;;;;;;;;;7.67;7.67;;;;;20.28;82.64;101178.59;5081294;28;46621;-74
2022/08/05 03:26:01;;;;;;;;;11.67;11.00;;;;;20.25;82.65;101168.25;5081497;28;45452;-74
2022/08/05 03:28:28;;;;;;;;;9.67;9.33;;;;;20.24;82.41;101155.81;5077052;27;45485;-74
2022/08/05 03:30:55;;;;;;;;;7.00;7.00;;;;;20.24;82.31;101156.66;5074179;28;45545;-74
2022/08/05 03:33:20;;;;;;;;;10.00;9.00;;;;;20.26;82.42;101161.84;5066942;28;45307;-74
2022/08/05 03:35:47;;;;;;;;;8.67;8.67;;;;;20.22;82.14;101150.66;5081600;28;45263;-74
2022/08/05 03:38:13;;;;;;;;;9.67;7.00;;;;;20.21;82.24;101167.91;5081251;28;45338;-74
2022/08/05 03:40:43;;;;;;;;;7.67;7.67;;;;;20.21;81.81;101165.22;5081445;28;45470;-74
2022/08/05 03:43:08;;;;;;;;;7.00;7.00;;;;;20.19;82.11;101148.41;5080853;28;45429;-75
2022/08/05 03:45:34;;;;;;;;;8.00;8.00;;;;;20.23;81.72;101164.97;5081332;28;45364;-74
2022/08/05 03:47:59;;;;;;;;;5.33;5.33;;;;;20.27;81.93;101171.56;5081371;28;45301;-74
2022/08/05 03:50:41;;;;;;;;;5.33;5.33;;;;;20.24;81.73;101172.03;5076559;27;46904;-74
2022/08/05 03:53:20;;;;;;;;;7.00;6.33;;;;;20.20;81.49;101168.94;5074935;28;45695;-74
2022/08/05 03:55:52;;;;;;;;;8.33;8.33;;;;;20.17;81.46;101162.13;5081133;28;45377;-75
2022/08/05 03:58:21;;;;;;;;;8.33;8.33;;;;;20.16;81.37;101176.69;5091271;27;45362;-75
2022/08/05 04:00:48;;;;;;;;;8.67;6.33;;;;;20.08;82.08;101168.91;5080788;28;45527;-74
2022/08/05 04:03:16;;;;;;;;;8.00;7.67;;;;;20.06;81.97;101166.41;5080735;28;46363;-75
2022/08/05 04:05:43;;;;;;;;;8.00;6.33;;;;;20.10;82.09;101176.75;5080531;28;45404;-74
2022/08/05 04:08:10;;;;;;;;;7.00;7.00;;;;;20.11;82.27;101176.53;5080911;28;45435;-75
2022/08/05 04:10:36;;;;;;;;;8.00;7.33;;;;;20.04;82.48;101175.81;5079272;28;47327;-74
2022/08/05 04:13:02;;;;;;;;;9.33;8.00;;;;;20.08;82.41;101162.69;5080386;28;45583;-74
2022/08/05 04:15:28;;;;;;;;;9.00;9.00;;;;;20.06;83.18;101149.44;5092048;27;45524;-77
2022/08/05 04:17:54;;;;;;;;;8.33;8.00;;;;;20.06;83.25;101131.34;5091787;27;45417;-74
2022/08/05 04:20:22;;;;;;;;;9.00;9.00;;;;;20.05;84.08;101123.50;5080722;28;45457;-74
2022/08/05 04:22:47;;;;;;;;;8.00;8.00;;;;;20.11;83.40;101135.25;5080407;28;45350;-73
2022/08/05 04:25:13;;;;;;;;;9.00;7.67;;;;;20.13;83.50;101147.47;5077811;28;45767;-73
2022/08/05 04:27:39;;;;;;;;;8.00;7.67;;;;;20.17;83.21;101174.78;5076905;28;45327;-73
2022/08/05 04:30:05;;;;;;;;;10.00;8.33;;;;;20.13;83.19;101157.41;5080598;28;45397;-73
2022/08/05 04:32:31;;;;;;;;;8.00;8.00;;;;;20.13;83.26;101155.56;5080247;28;46558;-73
2022/08/05 04:34:56;;;;;;;;;7.33;7.00;;;;;20.15;83.01;101163.41;5078713;28;45533;-74
2022/08/05 04:37:21;;;;;;;;;7.00;5.67;;;;;20.11;82.64;101163.03;5080688;28;45310;-73
2022/08/05 04:39:47;;;;;;;;;9.33;9.33;;;;;20.06;82.96;101158.31;5080063;28;45650;-74
2022/08/05 04:42:12;;;;;;;;;10.00;10.00;;;;;20.07;82.75;101161.84;5080448;28;45258;-73
2022/08/05 04:44:37;;;;;;;;;9.67;8.33;;;;;20.03;83.10;101155.28;5089836;27;45326;-73
2022/08/05 04:47:03;;;;;;;;;11.33;9.00;;;;;20.00;82.83;101151.16;5080231;28;45215;-73
2022/08/05 04:49:28;;;;;;;;;8.33;8.33;;;;;20.04;83.24;101159.63;5078769;28;46279;-73
2022/08/05 04:51:53;;;;;;;;;10.67;9.00;;;;;20.00;83.38;101155.69;5078540;28;48533;-73
2022/08/05 04:54:20;;;;;;;;;10.00;9.00;;;;;19.99;83.38;101165.66;5080060;28;45293;-74
2022/08/05 04:56:46;;;;;;;;;8.00;8.00;;;;;19.97;83.72;101170.47;5080199;28;45374;-73
2022/08/05 04:59:13;;;;;;;;;9.00;8.00;;;;;19.95;83.69;101177.97;5080005;28;45434;-74
2022/08/05 05:01:38;;;;;;;;;10.67;10.67;;;;;20.05;83.20;101170.19;5079573;28;45358;-74
2022/08/05 05:04:03;;;;;;;;;10.00;10.00;;;;;20.05;83.07;101167.47;5079857;28;45315;-74
2022/08/05 05:06:29;;;;;;;;;8.33;8.33;;;;;20.00;83.39;101171.88;5080191;28;45484;-74
2022/08/05 05:08:54;;;;;;;;;9.00;9.00;;;;;20.02;83.42;101181.44;5079696;28;46887;-75
2022/08/05 05:11:21;;;;;;;;;12.00;12.00;;;;;20.04;83.25;101175.81;5079698;28;45377;-74
2022/08/05 05:13:46;;;;;;;;;45.00;38.50;;;;;20.05;83.41;101182.84;5079769;28;45267;-74
2022/08/05 05:16:11;;;;;;;;;13.00;13.00;;;;;20.01;83.35;101177.09;5084843;27;45325;-74
2022/08/05 05:18:37;;;;;;;;;12.33;12.00;;;;;20.04;83.50;101179.34;5085898;27;45291;-74
2022/08/05 05:21:02;;;;;;;;;13.67;10.00;;;;;20.05;nan;101180.13;5079787;28;46262;-78
2022/08/05 05:23:28;;;;;;;;;13.00;11.00;;;;;20.11;83.82;101194.63;5078523;28;45305;-79
2022/08/05 05:25:53;;;;;;;;;12.67;12.00;;;;;20.10;83.88;101201.03;5081437;27;45238;-79
2022/08/05 05:28:18;;;;;;;;;10.00;8.33;;;;;20.16;84.04;101214.47;5082500;28;45224;-79
2022/08/05 05:30:45;;;;;;;;;11.00;11.00;;;;;20.14;83.89;101211.16;5089256;27;47426;-79
2022/08/05 05:33:10;;;;;;;;;12.67;12.67;;;;;20.18;84.00;101217.75;5081932;28;45912;-80
2022/08/05 05:35:36;;;;;;;;;10.33;9.00;;;;;20.24;84.60;101226.81;5079934;28;45283;-79
2022/08/05 05:38:03;;;;;;;;;9.00;7.33;;;;;20.32;84.21;101236.44;5079074;28;47022;-79
2022/08/05 05:40:29;;;;;;;;;8.00;8.00;;;;;20.34;84.97;101225.44;5078859;28;45468;-79
2022/08/05 05:42:55;;;;;;;;;12.00;11.33;;;;;20.42;84.98;101235.94;5068129;27;45530;-79
2022/08/05 05:45:21;;;;;;;;;12.33;10.67;;;;;20.42;85.25;101238.63;5075245;28;45502;-79
2022/08/05 05:47:47;;;;;;;;;8.33;7.00;;;;;20.50;84.33;101249.09;5074016;28;47215;-79
2022/08/05 05:50:16;;;;;;;;;8.00;6.33;;;;;20.44;83.69;101231.94;5075596;27;45772;-79
2022/08/05 05:52:43;;;;;;;;;10.67;9.00;;;;;20.49;82.95;101247.44;5074604;28;45531;-78
2022/08/05 05:55:10;;;;;;;;;8.33;8.33;;;;;20.44;83.06;101245.44;5077481;28;45424;-80
2022/08/05 05:57:37;;;;;;;;;10.00;8.33;;;;;20.46;82.66;101245.22;5075384;27;45479;-78
2022/08/05 06:00:08;;;;;;;;;11.67;10.67;;;;;20.46;82.07;101255.16;5077690;28;45585;-78
2022/08/05 06:02:34;;;;;;;;;8.33;8.33;;;;;20.36;82.30;101256.56;5059662;28;45690;-77
2022/08/05 06:04:59;;;;;;;;;8.00;8.00;;;;;20.40;82.60;101259.63;5059630;27;45362;-77
2022/08/05 06:07:28;;;;;;;;;10.00;10.00;;;;;20.29;82.22;101248.53;5077627;28;50813;-77
2022/08/05 06:09:55;;;;;;;;;11.67;10.67;;;;;20.29;82.06;101253.94;5059566;28;48200;-78
2022/08/05 06:12:21;;;;;;;;;13.00;10.33;;;;;20.32;83.04;101258.03;5059214;28;45774;-78
2022/08/05 06:14:46;;;;;;;;;11.67;9.67;;;;;20.38;82.58;101270.63;5059756;27;45410;-78
2022/08/05 06:17:12;;;;;;;;;11.33;11.33;;;;;20.43;82.27;101275.34;5060148;27;46369;-77
2022/08/05 06:19:38;;;;;;;;;10.67;10.67;;;;;20.34;81.88;101258.66;5077578;28;45565;-78
2022/08/05 06:22:05;;;;;;;;;10.67;10.00;;;;;20.47;82.12;101278.44;5056716;27;45961;-78
2022/08/05 06:24:31;;;;;;;;;12.67;10.00;;;;;20.46;82.56;101269.50;5059377;28;45369;-77
2022/08/05 06:26:56;;;;;;;;;12.33;12.33;;;;;20.58;82.72;101272.25;5060003;28;46036;-76
2022/08/05 06:29:22;;;;;;;;;11.33;11.00;;;;;20.55;82.09;101276.25;5075790;28;53023;-77
2022/08/05 06:31:47;;;;;;;;;10.33;10.33;;;;;20.57;82.29;101267.91;5059326;28;45307;-76
2022/08/05 06:34:13;;;;;;;;;11.33;11.33;;;;;20.53;82.66;101275.63;5077727;28;45689;-77
2022/08/05 06:36:39;;;;;;;;;13.33;10.33;;;;;20.68;82.05;101285.19;5077514;28;45545;-78
2022/08/05 06:39:04;;;;;;;;;12.67;12.33;;;;;20.65;82.25;101286.47;5059189;28;47110;-76
2022/08/05 06:41:30;;;;;;;;;9.33;9.33;;;;;20.60;82.78;101282.81;5077261;28;45401;-76
2022/08/05 06:43:55;;;;;;;;;11.00;9.00;;;;;20.46;82.40;101276.78;5077515;28;45520;-76
2022/08/05 06:46:20;;;;;;;;;10.00;10.00;;;;;20.53;81.82;101288.34;5078104;28;45284;-76
2022/08/05 06:48:46;;;;;;;;;12.67;12.67;;;;;20.38;81.70;101269.84;5080472;28;47021;-76
2022/08/05 06:51:11;;;;;;;;;11.00;11.00;;;;;20.39;82.27;101279.56;5081914;28;45321;-76
2022/08/05 06:53:36;;;;;;;;;10.33;9.00;;;;;20.45;82.36;101286.75;5081975;28;45402;-77
2022/08/05 06:56:02;;;;;;;;;11.67;11.67;;;;;20.48;82.17;101286.31;5080780;28;46273;-76
2022/08/05 06:58:28;;;;;;;;;14.33;11.33;;;;;20.53;82.49;101286.44;5081810;28;45567;-77
2022/08/05 07:00:53;;;;;;;;;13.00;12.00;;;;;20.52;82.56;101292.06;5081833;28;45410;-76
2022/08/05 07:03:18;;;;;;;;;14.67;13.67;;;;;20.55;82.79;101292.44;5081757;28;45351;-75
2022/08/05 07:05:44;;;;;;;;;16.67;14.00;;;;;20.57;82.68;101294.91;5079048;28;45461;-75
2022/08/05 07:08:10;;;;;;;;;17.67;15.67;;;;;20.60;82.25;101296.31;5067121;28;45383;-75
2022/08/05 07:10:35;;;;;;;;;13.67;12.67;;;;;20.68;82.77;101298.69;5076966;28;45456;-74
2022/08/05 07:18:29;;;;;;;;;12.67;12.00;;;;;20.74;82.68;101310.47;5079607;28;45338;-77
2022/08/05 07:20:54;;;;;;;;;11.00;10.00;;;;;20.72;81.10;101304.47;5061899;28;46174;-76
2022/08/05 07:23:19;;;;;;;;;12.67;12.67;;;;;20.73;81.30;101303.41;5068090;28;45759;-75
2022/08/05 07:25:45;;;;;;;;;11.67;11.67;;;;;20.73;81.03;101303.41;5079692;28;45565;-76
2022/08/05 07:28:10;;;;;;;;;13.00;13.00;;;;;20.77;81.23;101307.31;5077574;27;48550;-77
2022/08/05 07:30:36;;;;;;;;;12.33;11.67;;;;;20.80;81.27;101304.16;5080387;28;45410;-75
2022/08/05 07:33:03;;;;;;;;;12.00;12.00;;;;;20.83;81.36;101314.47;5078286;28;45498;-77
2022/08/05 07:35:29;;;;;;;;;13.00;12.67;;;;;20.83;80.99;101322.59;5067365;28;47133;-78
2022/08/05 07:37:54;;;;;;;;;15.67;15.67;;;;;20.85;81.14;101327.75;5061872;28;47534;-79
2022/08/05 07:40:20;;;;;;;;;10.00;9.33;;;;;20.84;81.32;101326.97;5081854;28;45290;-79
2022/08/05 07:42:46;;;;;;;;;10.33;10.33;;;;;20.90;81.06;101336.06;5082131;28;45370;-79
2022/08/05 07:45:11;;;;;;;;;11.33;11.33;;;;;20.90;80.66;101330.66;5069819;28;45332;-79
2022/08/05 07:47:37;;;;;;;;;13.33;13.33;;;;;20.97;81.10;101336.78;5078105;28;45331;-79
2022/08/05 07:50:02;;;;;;;;;9.33;9.33;;;;;21.01;80.61;101331.75;5080802;27;45382;-77
2022/08/05 07:52:28;;;;;;;;;10.33;10.33;;;;;21.08;80.31;101339.75;5079327;27;45334;-78
2022/08/05 07:54:53;;;;;;;;;11.00;11.00;;;;;21.17;80.07;101346.47;5081085;27;45396;-79
2022/08/05 07:57:18;;;;;;;;;11.67;11.00;;;;;21.17;80.49;101330.25;5081770;28;45464;-79
2022/08/05 07:59:44;;;;;;;;;11.33;11.33;;;;;21.19;79.96;101339.78;5079907;28;45339;-79
2022/08/05 08:02:09;;;;;;;;;10.00;10.00;;;;;21.35;80.14;101352.84;5084691;27;45374;-79
2022/08/05 08:04:35;;;;;;;;;9.33;8.67;;;;;21.35;79.53;101350.16;5080785;28;45383;-78
2022/08/05 08:07:00;;;;;;;;;11.00;10.00;;;;;21.37;78.84;101340.75;5078785;28;46846;-78
2022/08/05 08:09:26;;;;;;;;;8.33;8.33;;;;;21.41;78.90;101357.34;5080750;28;45374;-79
2022/08/05 08:11:51;;;;;;;;;13.00;11.33;;;;;21.49;78.84;101351.56;5080933;28;45252;-79
2022/08/05 08:14:17;;;;;;;;;11.33;10.33;;;;;21.56;78.53;101359.59;5086293;27;50641;-78
2022/08/05 08:16:42;;;;;;;;;9.00;8.33;;;;;21.59;79.26;101358.28;5089667;27;45285;-79
2022/08/05 08:19:07;;;;;;;;;12.00;10.00;;;;;21.63;78.66;101344.06;5081086;28;45337;-78
2022/08/05 08:21:33;;;;;;;;;7.00;7.00;;;;;21.82;78.44;101357.53;5091207;27;45356;-79
2022/08/05 08:23:58;;;;;;;;;9.67;9.67;;;;;21.89;77.21;101358.22;5076231;28;46999;-80
2022/08/05 08:26:25;;;;;;;;;10.33;9.00;;;;;21.93;77.49;101364.81;5068640;28;46008;-79
2022/08/05 08:28:51;;;;;;;;;11.33;11.00;;;;;22.00;76.62;101356.56;5084558;28;45378;-78
2022/08/05 08:31:17;;;;;;;;;10.00;7.33;;;;;22.07;76.81;101357.28;5080627;28;45276;-78
2022/08/05 08:33:43;;;;;;;;;10.00;10.00;;;;;22.17;77.06;101372.91;5082335;28;45554;-78
2022/08/05 08:36:09;;;;;;;;;11.33;10.00;;;;;22.19;76.37;101378.91;5080333;28;45309;-78
2022/08/05 08:38:34;;;;;;;;;10.00;10.00;;;;;22.12;75.05;101359.25;5080466;28;45388;-77
2022/08/05 08:41:04;;;;;;;;;7.00;6.67;;;;;22.22;73.68;101364.09;5083491;28;45311;-79
2022/08/05 08:43:31;;;;;;;;;9.33;8.33;;;;;22.24;75.07;101371.97;5080894;28;45508;-79
2022/08/05 08:45:56;;;;;;;;;9.00;8.00;;;;;22.28;74.11;101378.53;5081172;28;46996;-79
2022/08/05 08:48:24;;;;;;;;;7.67;6.00;;;;;22.32;73.81;101371.59;5084525;28;45560;-79
2022/08/05 08:50:50;;;;;;;;;9.67;8.00;;;;;22.36;73.48;101380.91;5089062;27;45329;-78
2022/08/05 08:53:17;;;;;;;;;9.33;8.00;;;;;22.41;73.01;101382.88;5087391;27;45322;-78
2022/08/05 08:55:43;;;;;;;;;9.67;8.67;;;;;22.40;72.26;101376.66;5090258;27;46270;-78
2022/08/05 08:58:10;;;;;;;;;7.00;5.67;;;;;22.55;73.47;101386.13;5073185;28;46287;-79
2022/08/05 09:00:35;;;;;;;;;8.33;8.33;;;;;22.58;71.80;101377.56;5084567;28;45405;-79
2022/08/05 09:03:03;;;;;;;;;9.67;7.33;;;;;22.63;71.35;101385.78;5082116;28;45288;-79
2022/08/05 09:05:29;;;;;;;;;9.00;9.00;;;;;22.64;70.43;101376.63;5090157;28;47241;-79
2022/08/05 09:07:54;;;;;;;;;8.33;7.33;;;;;22.75;69.72;101379.53;5085264;27;45368;-79
2022/08/05 09:10:21;;;;;;;;;7.67;7.67;;;;;22.86;69.93;101383.25;5082409;28;45391;-79
2022/08/05 09:12:47;;;;;;;;;6.33;6.33;;;;;22.86;69.40;101375.13;5076602;28;45523;-78
2022/08/05 09:15:13;;;;;;;;;7.67;6.67;;;;;22.94;68.69;101393.69;5078699;28;45360;-78
2022/08/05 09:17:39;;;;;;;;;9.00;7.67;;;;;23.03;68.89;101391.41;5087839;27;45291;-79
2022/08/05 09:20:05;;;;;;;;;8.00;8.00;;;;;23.15;68.66;101388.66;5073089;28;45286;-78
2022/08/05 09:23:01;;;;;;;;;8.00;7.00;;;;;23.24;70.69;101398.03;5079685;28;45564;-78
2022/08/05 09:25:27;;;;;;;;;9.00;9.00;;;;;23.34;68.03;101397.38;5079990;27;46633;-77
2022/08/05 09:27:52;;;;;;;;;9.00;9.00;;;;;23.46;67.81;101400.06;5079985;28;45636;-77
2022/08/05 09:30:17;;;;;;;;;8.67;8.67;;;;;23.47;64.96;101381.91;5081182;28;45397;-78
2022/08/05 09:32:43;;;;;;;;;9.33;8.67;;;;;23.45;65.33;101380.25;5080759;28;47458;-78
2022/08/05 09:35:11;;;;;;;;;12.00;11.00;;;;;23.49;65.94;101396.06;5080920;28;48547;-82
2022/08/05 09:37:37;;;;;;;;;11.00;10.00;;;;;23.51;66.07;101388.47;5076915;27;45337;-81
2022/08/05 09:40:03;;;;;;;;;14.67;14.67;;;;;23.53;64.60;101389.91;5074969;27;45303;-81
2022/08/05 09:42:39;;;;;;;;;14.67;13.00;;;;;23.51;65.43;101402.03;5069414;28;45224;-81
2022/08/05 09:45:07;;;;;;;;;15.00;14.33;;;;;23.52;64.22;101399.06;5078288;28;46028;-79
2022/08/05 09:47:32;;;;;;;;;13.67;13.67;;;;;23.56;65.17;101391.28;5078892;28;46008;-79
2022/08/05 09:49:57;;;;;;;;;12.00;12.00;;;;;23.69;65.52;101390.13;5079272;27;45638;-80
2022/08/05 09:52:33;;;;;;;;;13.00;12.67;;;;;23.78;65.08;101396.78;5080753;28;45428;-79
2022/08/05 09:55:06;;;;;;;;;15.67;15.33;;;;;23.90;64.84;101406.72;5071052;28;47726;-79
2022/08/05 09:57:43;;;;;;;;;16.00;15.33;;;;;23.95;65.28;101414.94;5081348;28;45899;-80
2022/08/05 10:00:18;;;;;;;;;14.67;14.67;;;;;24.01;62.94;101400.38;5086619;28;45358;-78
2022/08/05 10:02:46;;;;;;;;;12.33;12.33;;;;;24.05;63.17;101395.25;5088779;27;46485;-78
2022/08/05 10:05:14;;;;;;;;;13.00;11.33;;;;;24.14;63.77;101406.53;5076713;28;48402;-77
2022/08/05 10:07:54;;;;;;;;;13.00;13.00;;;;;24.19;63.31;101403.91;5085435;27;45286;-79
2022/08/05 10:10:22;;;;;;;;;11.33;9.67;;;;;24.32;64.29;101389.13;5093264;27;45306;-81
2022/08/05 10:12:53;;;;;;;;;16.00;14.33;;;;;24.52;64.12;101393.19;5069458;28;44737;-79
2022/08/05 10:15:22;;;;;;;;;15.33;14.67;;;;;24.73;62.19;101398.84;5079697;28;48450;-79
2022/08/05 10:18:10;;;;;;;;;14.67;14.33;;;;;24.90;62.67;101405.06;5086913;27;45287;-79
2022/08/05 10:20:48;;;;;;;;;18.67;16.33;;;;;25.05;61.83;101401.69;5062243;28;45265;-78
2022/08/05 10:23:24;;;;;;;;;16.33;15.33;;;;;25.33;62.58;101413.38;5069184;28;45520;-78
2022/08/05 10:25:49;;;;;;;;;16.00;16.00;;;;;25.50;61.99;101401.53;5088307;28;47299;-78
2022/08/05 10:28:16;;;;;;;;;13.00;13.00;;;;;25.64;61.43;101422.88;5088319;28;45904;-78
2022/08/05 10:30:41;;;;;;;;;15.00;14.00;;;;;25.56;60.09;101414.09;5089820;28;45307;-79
2022/08/05 10:33:07;;;;;;;;;14.33;13.67;;;;;25.53;59.93;101411.91;5086390;28;47226;-77
2022/08/05 10:35:34;;;;;;;;;14.00;13.00;;;;;25.46;60.20;101409.41;5086510;28;45434;-78
2022/08/05 10:38:00;;;;;;;;;12.33;12.33;;;;;25.45;59.78;101398.78;5086155;28;45002;-81
2022/08/05 10:40:32;;;;;;;;;14.67;14.67;;;;;25.72;59.82;101408.81;5086755;27;45290;-80
2022/08/05 10:43:06;;;;;;;;;11.00;10.00;;;;;25.96;59.22;101405.72;5089774;27;47006;-81
2022/08/05 10:45:34;;;;;;;;;13.33;13.00;;;;;26.17;59.32;101405.81;5082198;28;47312;-79
2022/08/05 10:48:28;;;;;;;;;11.00;11.00;;;;;26.30;59.19;101413.53;5087443;28;45301;-80
2022/08/05 10:51:20;;;;;;;;;11.67;10.67;;;;;26.18;56.47;101419.19;5084911;28;45172;-79
2022/08/05 10:54:00;;;;;;;;;8.33;8.33;;;;;26.14;57.72;101411.78;5068750;27;45490;-82
2022/08/05 10:56:28;;;;;;;;;14.00;13.67;;;;;26.34;57.15;101425.53;5075681;28;47010;-80
2022/08/05 10:58:53;;;;;;;;;10.00;9.33;;;;;26.41;57.14;101422.59;5066494;28;45500;-81
2022/08/05 11:01:34;;;;;;;;;13.00;11.67;;;;;26.32;54.92;101429.63;5077542;28;45634;-79
2022/08/05 11:04:08;;;;;;;;;10.33;10.00;;;;;26.08;53.96;101419.13;5074101;28;45485;-83
2022/08/05 11:06:54;;;;;;;;;12.00;10.00;;;;;26.01;55.89;101427.50;5064270;27;48055;-82
2022/08/05 11:09:21;;;;;;;;;11.67;11.67;;;;;26.22;55.24;101433.09;5065689;27;46470;-81
2022/08/05 11:11:49;;;;;;;;;12.00;12.00;;;;;26.44;56.20;101424.78;5065016;28;45661;-81
2022/08/05 11:14:27;;;;;;;;;13.00;11.67;;;;;26.88;55.30;101430.13;5064306;28;46049;-81
2022/08/05 11:17:28;;;;;;;;;12.00;12.00;;;;;27.22;53.46;101418.75;5074292;27;45358;-79
2022/08/05 11:19:55;;;;;;;;;11.33;10.33;;;;;27.40;52.50;101428.31;5074764;28;45545;-81
2022/08/05 11:22:46;;;;;;;;;11.00;11.00;;;;;27.30;51.88;101434.59;5069771;28;45405;-80
2022/08/05 11:25:30;;;;;;;;;10.33;10.33;;;;;27.41;52.43;101437.34;5065260;28;46497;-81
2022/08/05 11:28:16;;;;;;;;;10.00;9.67;;;;;27.28;51.06;101436.78;5077157;28;45464;-79